Worden, MT

10:27 PM MDT on September 20, 2014 (GMT -0600)
Billings Logan International | Change Station
CLOSE
Current Station
Airport
Location: Billings,
Elevation: 3570 ft
Nearby Weather Stations

Elev 3570 ft 45.81 °N, 108.54 °W | Updated 34 minutes ago

Clear
Clear
60 °F
Feels Like 60 °F
N
6
Wind Variable Wind from NNE

Today
High -- | Low -- °F
--% Chance of Precip.
Yesterday
High -- | Low -- °F
Precip. -- in
6:57 AM 7:14 PM
Waning Crescent, 9% visible
Pressure 30.22 in
Visibility 10.0 miles
Clouds Clear
Dew Point 43 °F
Humidity 53%
Rainfall 0.00 in
Snow Depth 0 in , 0 in , 0 in
UV 0 out of 12
Pollen 5.30 out of 12
Air Quality Not available.
Flu Activity Not available.
METAR KBIL 210353Z 02005KT 10SM CLR 16/06 A3027 RMK AO2 SLP231 T01560061

More Conditions Fewer Conditions

Pressure 30.22 in
Visibility 10.0 miles
Clouds Clear
Dew Point 43 °F
Humidity 53%
Rainfall 0.00 in
Snow Depth 0 in , 0 in , 0 in
UV 0 out of 12
Pollen 5.30 out of 12
Air Quality Not available.
Flu Activity Not available.
METAR KBIL 210353Z 02005KT 10SM CLR 16/06 A3027 RMK AO2 SLP231 T01560061

More Conditions Fewer Conditions

10-Day Weather Forecast

Almanac

Astronomy

Sep. 20, 2014 Rise Set
Actual Time 6:57 AM MDT 7:14 PM MDT
Civil Twilight 6:27 AM MDT 7:43 PM MDT
Nautical Twilight 5:52 AM MDT 8:19 PM MDT
Astronomical Twilight 5:15 AM MDT 8:55 PM MDT
Moon 3:30 AM MDT (9/20) 5:26 PM MDT (9/20)
Length of Visible Light 13h 16m
Length of Day
12h 16m
Tomorrow will be 3m 13s shorter.
Waning Crescent, 9% of the Moon is Illuminated
Sep 21
Waning Crescent
Sep 24
New
Oct 1
First Quarter
Oct 8
Full
Oct 15
Last Quarter

Today's Extremes

State Highs State Lows

Community

WunderPhotos

Upload Photos

1,755,081 photos uploaded!

Nearby

Snow Depth

Station Depth Elevation
West Yellowstone 0 in 6700 ft
Boulder Mountain 0 in 7950 ft
Burnt Mountain 0 in 5880 ft
Saddle Mountain 0 in 7900 ft
Nez Perce Camp 0 in 5650 ft

Earthquake Activity

City Distance Mag. Time & Date
No recent earthquake activity has been reported nearby.
Minimum magnitude displayed is 2.5.

Coastal Water Temperatures

Place Temperature
No Stations Reporting

Nearby Weather Stations